Data for 02/21/2017

Time Sea-Level Adjusted Pressure Absolute Pressure Temperature Relative Humidity Dew Point   
(mb) (inHg) (mb) (inHg) (C) (F) (%) (C) (F)
00:05 1010 29.83 839 24.78 5.5 41.9 56 -2.6 27.3
00:10 1010 29.83 839 24.78 5.3 41.6 57 -2.6 27.3
00:15 1010 29.83 839 24.78 5 41 59 -2.3 27.9
00:20 1010 29.83 839 24.78 4.8 40.7 57 -2.9 26.8
00:25 1010 29.83 839 24.78 5.2 41.3 58 -2.5 27.5
00:30 1010 29.83 839 24.78 4.8 40.7 60 -2.4 27.7
00:35 1010 29.83 839 24.78 4.6 40.2 60 -2.5 27.4
00:40 1010 29.83 839 24.78 4.3 39.7 61 -2.6 27.3
00:45 1010 29.83 839 24.78 4.4 39.9 63 -2.1 28.2
00:50 1010 29.83 839 24.78 4.6 40.3 59 -2.7 27.1
00:55 1010 29.83 839 24.78 5 41 58 -2.6 27.3
01:00 1010 29.83 839 24.78 5.2 41.4 56 -2.9 26.8
01:05 1010 29.83 839 24.78 5.2 41.3 58 -2.3 27.8
01:10 1010 29.83 839 24.78 4.8 40.6 57 -2.9 26.8
01:15 1009 29.8 839 24.78 5.6 42 53 -3.2 26.2
01:20 1009 29.8 839 24.78 5.6 42.1 55 -2.7 27.2
01:25 1009 29.8 839 24.78 5.5 41.9 54 -3 26.6
01:30 1010 29.83 839 24.78 5.5 41.8 55 -2.8 27
01:35 1010 29.83 839 24.78 5.3 41.6 57 -2.5 27.5
01:40 1010 29.83 839 24.78 4.7 40.4 60 -2.4 27.8
01:45 1009 29.8 839 24.78 4.2 39.5 61 -2.6 27.3
01:50 1010 29.83 839 24.78 4.2 39.6 59 -3 26.6
01:55 1010 29.83 839 24.78 4.5 40.1 60 -2.6 27.2
02:00 1010 29.83 839 24.78 4.6 40.3 58 -3 26.5
02:05 1010 29.83 839 24.78 4.9 40.8 58 -2.6 27.2
02:10 1010 29.83 839 24.78 4.7 40.4 58 -3 26.7
02:15 1010 29.83 839 24.78 5 40.9 56 -3.2 26.3
02:20 1010 29.83 839 24.78 5.3 41.5 56 -2.9 26.8
02:25 1009 29.8 839 24.78 5.2 41.3 57 -2.5 27.5
02:30 1009 29.8 839 24.78 4.8 40.6 57 -3 26.6
02:35 1009 29.8 839 24.78 4.4 40 60 -2.6 27.2
02:40 1009 29.8 838 24.75 4.3 39.7 60 -2.9 26.8
02:45 1009 29.8 839 24.78 4.4 39.9 59 -2.8 26.9
02:50 1009 29.8 838 24.75 4.3 39.8 59 -2.9 26.8
02:55 1009 29.8 838 24.75 4.3 39.7 60 -2.8 26.9
03:00 1009 29.8 838 24.75 4.4 40 58 -3 26.6
03:05 1009 29.8 838 24.75 4.7 40.4 58 -2.8 27
03:10 1009 29.8 838 24.75 4.7 40.4 57 -3 26.5
03:15 1009 29.8 838 24.75 5.1 41.1 56 -2.9 26.7
03:20 1009 29.8 838 24.75 5.1 41.2 56 -3 26.7
03:25 1009 29.8 838 24.75 5.2 41.4 56 -2.9 26.8
03:30 1009 29.8 838 24.75 5 41.1 57 -2.9 26.8
03:35 1009 29.8 838 24.75 4.9 40.8 57 -2.8 26.9
03:40 1009 29.8 838 24.75 5.2 41.3 56 -2.9 26.7
03:45 1009 29.8 838 24.75 5.6 42 56 -2.6 27.4
03:50 1009 29.8 838 24.75 5.5 41.9 57 -2.4 27.7
03:55 1009 29.8 838 24.75 5.2 41.4 58 -2.3 27.9
04:00 1009 29.8 838 24.75 4.9 40.8 59 -2.5 27.6
04:05 1009 29.8 838 24.75 4.9 40.8 59 -2.4 27.6
04:10 1009 29.8 838 24.75 4.4 39.9 62 -2.4 27.8
04:15 1009 29.8 838 24.75 4.3 39.7 62 -2.3 27.8
04:20 1009 29.8 838 24.75 4.5 40.1 61 -2.3 27.8
04:25 1009 29.8 838 24.75 5 40.9 60 -2.2 28.1
04:30 1009 29.8 838 24.75 5.1 41.2 59 -2.2 28.1
04:35 1009 29.8 838 24.75 5.3 41.6 60 -1.8 28.8
04:40 1009 29.8 838 24.75 5.4 41.7 60 -1.8 28.7
04:45 1009 29.8 838 24.75 5.5 41.9 59 -1.8 28.7
04:50 1009 29.8 838 24.75 5 41 61 -1.9 28.6
04:55 1009 29.8 838 24.75 4.3 39.8 64 -2 28.4
05:00 1008 29.77 838 24.75 4.1 39.3 63 -2.3 27.9
05:05 1008 29.77 838 24.75 4 39.3 64 -2.1 28.2
05:10 1008 29.77 837 24.72 4 39.3 63 -2.3 27.9
05:15 1008 29.77 838 24.75 4.2 39.6 63 -2.2 28.1
05:20 1008 29.77 838 24.75 4.3 39.7 63 -2.2 28.1
05:25 1008 29.77 838 24.75 4.5 40.1 61 -2.3 27.9
05:30 1009 29.8 838 24.75 4.7 40.4 61 -2.2 28.1
05:35 1009 29.8 838 24.75 4.7 40.5 61 -2.1 28.1
05:40 1008 29.77 838 24.75 4.8 40.7 61 -2.1 28.2
05:45 1008 29.77 838 24.75 4.9 40.8 61 -2.1 28.2
05:50 1009 29.8 838 24.75 5 41 60 -2.2 28.1
05:55 1009 29.8 838 24.75 5.2 41.3 60 -2.1 28.3
06:00 1009 29.8 838 24.75 5.1 41.2 61 -1.8 28.7
06:05 1009 29.8 838 24.75 4.9 40.9 62 -1.8 28.7
06:10 1009 29.8 838 24.75 4.6 40.3 63 -1.8 28.7
06:15 1009 29.8 838 24.75 4.6 40.3 61 -2.2 28.1
06:20 1008 29.77 838 24.75 4.9 40.9 61 -1.8 28.7
06:25 1008 29.77 838 24.75 5.3 41.5 60 -1.9 28.6
06:30 1008 29.77 838 24.75 5.5 42 60 -1.7 29
06:35 1008 29.77 838 24.75 5.6 42.1 57 -2.2 28
06:40 1009 29.8 838 24.75 6.2 43.1 54 -2.4 27.6
06:45 1009 29.8 838 24.75 6.6 43.8 50 -3.2 26.2
06:50 1009 29.8 838 24.75 7.1 44.8 52 -2.1 28.2
06:55 1009 29.8 838 24.75 6.5 43.7 51 -2.8 26.9
07:00 1009 29.8 838 24.75 6.7 44 61 -0.2 31.6
07:05 1009 29.8 838 24.75 5.7 42.2 71 0.9 33.6
07:10 1009 29.8 838 24.75 5.2 41.3 72 0.5 32.8
07:15 1009 29.8 838 24.75 5.1 41.2 72 0.5 32.9
07:20 1009 29.8 838 24.75 4.9 40.8 72 0.4 32.6
07:25 1009 29.8 838 24.75 4.9 40.8 71 0 32.1
07:30 1009 29.8 838 24.75 4.9 40.9 71 0.2 32.3
07:35 1009 29.8 838 24.75 5 40.9 71 0.1 32.2
07:40 1009 29.8 838 24.75 5 41 71 0.2 32.4
07:45 1009 29.8 838 24.75 5 40.9 71 0.2 32.4
07:50 1009 29.8 838 24.75 4.9 40.7 72 0.3 32.5
07:55 1009 29.8 838 24.75 4.6 40.3 74 0.3 32.5
08:00 1009 29.8 838 24.75 4.7 40.4 72 -0 31.9
08:05 1009 29.8 838 24.75 5.1 41.2 70 0.2 32.3
08:10 1009 29.8 838 24.75 4.9 40.9 70 -0.1 31.8
08:15 1009 29.8 838 24.75 5.1 41.1 69 -0.2 31.7
08:20 1009 29.8 838 24.75 5.3 41.6 68 -0.1 31.7
08:25 1009 29.8 838 24.75 5.5 41.9 67 -0.1 31.9
08:30 1009 29.8 838 24.75 5.5 41.9 68 -0 31.9
08:35 1009 29.8 838 24.75 5.7 42.3 66 -0.1 31.8
08:40 1009 29.8 838 24.75 6.3 43.3 63 -0.3 31.4
08:45 1009 29.8 838 24.75 6.8 44.2 62 0.1 32.2
08:50 1009 29.8 838 24.75 6.6 43.8 62 -0.2 31.7
08:55 1009 29.8 838 24.75 6.7 44 64 0.4 32.7
09:00 1009 29.8 838 24.75 6.4 43.6 62 -0.4 31.3
09:05 1009 29.8 838 24.75 6.8 44.2 63 0.3 32.5
09:10 1009 29.8 838 24.75 6.7 44 55 -1.8 28.8
09:15 1009 29.8 838 24.75 7.5 45.4 52 -1.6 29.1
09:20 1009 29.8 838 24.75 7.8 46 55 -0.8 30.6
09:25 1009 29.8 838 24.75 7.6 45.7 42 -4.4 24.1
09:30 1009 29.8 838 24.75 8.2 46.7 42 -3.8 25.1
09:35 1009 29.8 838 24.75 8.5 47.2 43 -3.4 25.8
09:40 1009 29.8 838 24.75 8.5 47.3 36 -5.6 22
09:45 1009 29.8 838 24.75 9.1 48.4 34 -6.1 21.1
09:50 1009 29.8 838 24.75 9.5 49.2 32 -6.2 20.8
09:55 1009 29.8 838 24.75 9.4 49 32 -6.3 20.7
10:00 1009 29.8 838 24.75 9.5 49.1 31 -6.8 19.8
10:05 1009 29.8 838 24.75 9.8 49.6 31 -6.6 20.2
10:10 1009 29.8 838 24.75 10 50 31 -6.4 20.4
10:15 1008 29.77 838 24.75 10.1 50.2 27 -7.8 17.9
10:20 1008 29.77 837 24.72 10 49.9 29 -7.3 18.9
10:25 1008 29.77 837 24.72 9.9 49.8 27 -8.2 17.3
10:30 1008 29.77 837 24.72 10 50 27 -8.4 17
10:35 1008 29.77 837 24.72 10.1 50.1 28 -7.8 18
10:40 1008 29.77 837 24.72 10.1 50.2 26 -8.3 17
10:45 1008 29.77 837 24.72 10.2 50.3 27 -7.9 17.8
10:50 1008 29.77 837 24.72 10.1 50.2 27 -8.2 17.3
10:55 1008 29.77 837 24.72 10.1 50.1 28 -7.6 18.2
11:00 1008 29.77 837 24.72 10.1 50.1 27 -8.1 17.4
11:05 1008 29.77 837 24.72 10.2 50.4 26 -8.4 16.8
11:10 1008 29.77 837 24.72 10.2 50.3 26 -8.5 16.6
11:15 1008 29.77 837 24.72 10.1 50.2 26 -8.8 16.2
11:20 1008 29.77 837 24.72 10.3 50.5 26 -8.5 16.8
11:25 1008 29.77 837 24.72 10.3 50.5 27 -8.1 17.5
11:30 1008 29.77 837 24.72 10.3 50.5 26 -8.2 17.2
11:35 1008 29.77 837 24.72 10.2 50.4 29 -7 19.4
11:40 1008 29.77 838 24.75 10.3 50.6 29 -6.7 19.9
11:45 1008 29.77 838 24.75 10.4 50.7 28 -7.5 18.6
11:50 1008 29.77 838 24.75 10.3 50.5 28 -7.5 18.6
11:55 1008 29.77 838 24.75 10.4 50.7 28 -7.4 18.7
12:00 1008 29.77 838 24.75 10.5 50.8 29 -6.9 19.5
12:05 1008 29.77 838 24.75 10 50.1 32 -6 21.2
12:10 1009 29.8 838 24.75 9.6 49.2 33 -5.7 21.7
12:15 1009 29.8 838 24.75 9 48.1 36 -5.1 22.8
12:20 1009 29.8 838 24.75 8.6 47.5 42 -3.7 25.4
12:25 1009 29.8 838 24.75 8.3 46.9 44 -3.4 25.9
12:30 1009 29.8 838 24.75 7.9 46.2 45 -3.2 26.2
12:35 1009 29.8 838 24.75 7.7 45.9 47 -2.9 26.9
12:40 1009 29.8 838 24.75 7.5 45.5 47 -3.1 26.4
12:45 1009 29.8 838 24.75 7.5 45.5 46 -3.3 26
12:50 1009 29.8 838 24.75 7.7 45.9 43 -4.1 24.6
12:55 1009 29.8 838 24.75 8.8 47.8 41 -3.9 25.1
13:00 1009 29.8 838 24.75 9.4 48.8 41 -3.2 26.2
13:05 1009 29.8 838 24.75 9.8 49.7 39 -3.4 25.9
13:10 1009 29.8 838 24.75 9.9 49.8 35 -4.7 23.5
13:15 1009 29.8 838 24.75 9.6 49.4 36 -4.6 23.8
13:20 1009 29.8 838 24.75 9 48.2 40 -4 24.8
13:25 1009 29.8 838 24.75 8.2 46.8 39 -4.9 23.2
13:30 1008 29.77 838 24.75 8.1 46.5 40 -4.7 23.5
13:35 1008 29.77 838 24.75 8.3 47 36 -5.8 21.5
13:40 1009 29.8 838 24.75 8.8 47.8 34 -6.2 20.8
13:45 1009 29.8 838 24.75 9.1 48.4 33 -6.5 20.4
13:50 1009 29.8 838 24.75 9.2 48.5 33 -6.4 20.5
13:55 1009 29.8 838 24.75 9.2 48.5 32 -6.5 20.3
14:00 1009 29.8 838 24.75 9.5 49.1 29 -7.5 18.4
14:05 1008 29.77 838 24.75 9.5 49.2 30 -7.2 19
14:10 1008 29.77 838 24.75 9.6 49.2 30 -7 19.4
14:15 1008 29.77 837 24.72 9.5 49.1 32 -6.4 20.6
14:20 1008 29.77 837 24.72 9.5 49 33 -6.1 21.1
14:25 1008 29.77 837 24.72 9.7 49.5 33 -5.6 22
14:30 1008 29.77 837 24.72 10 49.9 33 -5.6 22
14:35 1008 29.77 837 24.72 10.3 50.5 32 -5.8 21.6
14:40 1008 29.77 837 24.72 9.9 49.9 33 -5.5 22
14:45 1008 29.77 837 24.72 10.1 50.2 34 -4.9 23.1
14:50 1008 29.77 838 24.75 10.1 50.2 29 -7.3 18.9
14:55 1008 29.77 838 24.75 9.7 49.5 29 -7.4 18.7
15:00 1008 29.77 838 24.75 9.7 49.5 28 -7.9 17.8
15:05 1008 29.77 837 24.72 9.5 49.1 29 -7.8 18
15:10 1008 29.77 837 24.72 9.4 48.9 28 -8.3 17.1
15:15 1008 29.77 837 24.72 10 49.9 28 -7.6 18.2
15:20 1008 29.77 837 24.72 9.7 49.5 29 -7.4 18.6
15:25 1008 29.77 837 24.72 9.7 49.5 31 -6.6 20.1
15:30 1008 29.77 837 24.72 9.8 49.6 30 -6.9 19.6
15:35 1008 29.77 837 24.72 9.4 48.9 30 -7.2 19.1
15:40 1008 29.77 838 24.75 9.1 48.3 31 -7.3 18.8
15:45 1009 29.8 838 24.75 8.7 47.7 31 -7.3 18.8
15:50 1009 29.8 838 24.75 8.7 47.7 30 -7.8 17.9
15:55 1009 29.8 838 24.75 9 48.2 31 -7.3 18.9
16:00 1008 29.77 838 24.75 9.1 48.4 33 -6.4 20.4
16:05 1008 29.77 838 24.75 8.7 47.6 33 -6.8 19.8
16:10 1009 29.8 838 24.75 8.8 47.8 32 -7 19.4
16:15 1009 29.8 838 24.75 9 48.1 33 -6.4 20.4
16:20 1009 29.8 838 24.75 8.8 47.8 34 -6.2 20.8
16:25 1009 29.8 838 24.75 8.8 47.8 33 -6.5 20.3
16:30 1009 29.8 838 24.75 8.6 47.4 34 -6.3 20.6
16:35 1008 29.77 837 24.72 8.4 47.1 35 -6.1 21
16:40 1008 29.77 837 24.72 8.3 47 35 -6.1 21.1
16:45 1008 29.77 837 24.72 7.5 45.5 38 -5.8 21.5
16:50 1008 29.77 837 24.72 7 44.5 39 -6 21.1
16:55 1008 29.77 838 24.75 6.7 44.1 41 -5.7 21.7
17:00 1009 29.8 838 24.75 6.5 43.6 43 -5.3 22.4
17:05 1009 29.8 838 24.75 6.6 43.8 40 -6 21.3
17:10 1009 29.8 838 24.75 6.5 43.7 43 -5.3 22.4
17:15 1009 29.8 839 24.78 6.3 43.4 42 -5.5 22.1
17:20 1009 29.8 839 24.78 6.4 43.5 43 -5.2 22.7
17:25 1009 29.8 838 24.75 6.2 43.2 44 -5 22.9
17:30 1009 29.8 838 24.75 5.9 42.6 44 -5.3 22.5
17:35 1009 29.8 838 24.75 5.6 42 45 -5.4 22.4
17:40 1009 29.8 838 24.75 5.4 41.8 45 -5.7 21.8
17:45 1010 29.83 839 24.78 5.4 41.8 44 -5.8 21.6
17:50 1010 29.83 839 24.78 5.3 41.6 46 -5.5 22.2
17:55 1010 29.83 839 24.78 5.2 41.3 45 -5.9 21.4
18:00 1010 29.83 839 24.78 5.2 41.3 45 -5.9 21.4
18:05 1010 29.83 839 24.78 5.1 41.3 45 -5.7 21.7
18:10 1009 29.8 839 24.78 5 41 46 -5.5 22
18:15 1010 29.83 839 24.78 4.8 40.6 47 -5.5 22.2
18:20 1009 29.8 839 24.78 4.6 40.4 47 -5.7 21.7
18:25 1009 29.8 839 24.78 4.8 40.6 44 -6.4 20.5
18:30 1010 29.83 839 24.78 5 41.1 45 -6 21.2
18:35 1010 29.83 839 24.78 4.9 40.9 45 -6.1 21.1
18:40 1010 29.83 839 24.78 4.9 40.9 43 -6.5 20.3
18:45 1010 29.83 839 24.78 5 41 43 -6.6 20.2
18:50 1010 29.83 839 24.78 4.8 40.7 42 -7.1 19.2
18:55 1010 29.83 839 24.78 4.9 40.8 41 -7.3 18.8
19:00 1010 29.83 839 24.78 4.9 40.7 39 -7.9 17.8
19:05 1010 29.83 839 24.78 4.8 40.7 39 -7.9 17.7
19:10 1010 29.83 839 24.78 4.8 40.7 36 -9 15.7
19:15 1010 29.83 839 24.78 5 40.9 39 -8 17.6
19:20 1010 29.83 839 24.78 4.8 40.6 39 -8.1 17.5
19:25 1010 29.83 839 24.78 4.5 40.2 39 -8.3 17.1
19:30 1010 29.83 839 24.78 4.6 40.3 35 -9.5 14.9
19:35 1010 29.83 839 24.78 4.7 40.5 36 -9 15.8
19:40 1010 29.83 839 24.78 4.5 40.2 35 -9.5 14.9
19:45 1010 29.83 839 24.78 4.5 40.1 34 -10 14
19:50 1010 29.83 839 24.78 4.4 39.9 35 -9.7 14.5
19:55 1010 29.83 839 24.78 4.3 39.7 37 -9.2 15.5
20:00 1010 29.83 839 24.78 4.1 39.4 38 -9 15.7
20:05 1010 29.83 839 24.78 4 39.2 39 -8.7 16.4
20:10 1010 29.83 839 24.78 3.8 38.9 38 -9.3 15.3
20:15 1010 29.83 839 24.78 4 39.2 37 -9.5 15
20:20 1010 29.83 839 24.78 4 39.1 38 -9.1 15.6
20:25 1010 29.83 839 24.78 3.8 38.9 37 -9.5 15
20:30 1010 29.83 839 24.78 3.8 38.9 37 -9.5 14.9
20:35 1010 29.83 839 24.78 3.8 38.9 37 -9.5 14.9
20:40 1010 29.83 840 24.81 3.8 38.8 38 -9.2 15.4
20:45 1010 29.83 840 24.81 3.7 38.6 38 -9.4 15.1
20:50 1010 29.83 840 24.81 3.6 38.6 39 -9.2 15.5
20:55 1010 29.83 839 24.78 3.5 38.3 38 -9.5 14.8
21:00 1010 29.83 839 24.78 3.4 38.1 39 -9.4 15.1
21:05 1010 29.83 839 24.78 3.3 38 37 -10 14
21:10 1010 29.83 839 24.78 3.5 38.2 38 -9.6 14.7
21:15 1010 29.83 839 24.78 3.5 38.3 37 -10 14.1
21:20 1010 29.83 840 24.81 3.7 38.6 39 -9.1 15.5
21:25 1011 29.85 840 24.81 3.3 38 40 -9 15.8
21:30 1011 29.85 840 24.81 3.2 37.8 39 -9.5 14.9
21:35 1011 29.85 840 24.81 3.3 37.9 38 -9.7 14.5
21:40 1011 29.85 840 24.81 3.3 37.9 39 -9.4 15.1
21:45 1011 29.85 840 24.81 3.1 37.5 40 -9.3 15.3
21:50 1011 29.85 840 24.81 2.9 37.3 38 -10 14.1
21:55 1011 29.85 840 24.81 3.1 37.5 38 -9.8 14.3
22:00 1011 29.85 840 24.81 3.1 37.5 36 -10.5 13.1
22:05 1011 29.85 840 24.81 3.3 37.9 37 -10 13.9
22:10 1011 29.85 840 24.81 3.2 37.8 37 -10 14
22:15 1011 29.85 840 24.81 3.2 37.8 37 -10.1 13.9
22:20 1011 29.85 840 24.81 3.4 38.2 36 -10.3 13.4
22:25 1011 29.85 840 24.81 3.6 38.4 35 -10.4 13.3
22:30 1011 29.85 840 24.81 3.6 38.4 36 -10 14
22:35 1011 29.85 840 24.81 3.5 38.4 36 -10.1 13.8
22:40 1011 29.85 840 24.81 3.5 38.3 36 -10.1 13.9
22:45 1011 29.85 840 24.81 3.5 38.4 35 -10.4 13.3
22:50 1011 29.85 840 24.81 3.7 38.6 35 -10.3 13.4
22:55 1011 29.85 840 24.81 3.6 38.5 36 -10.1 13.8
23:00 1011 29.85 840 24.81 3.6 38.4 37 -9.8 14.3
23:05 1011 29.85 840 24.81 3.4 38.2 37 -9.8 14.4
23:10 1011 29.85 840 24.81 3.4 38.2 37 -9.9 14.1
23:15 1011 29.85 840 24.81 3.4 38.1 39 -9.4 15.1
23:20 1011 29.85 840 24.81 3.3 37.9 38 -9.7 14.5
23:25 1011 29.85 840 24.81 3.3 38 38 -9.7 14.5
23:30 1011 29.85 840 24.81 3.3 38 38 -9.7 14.6
23:35 1011 29.85 840 24.81 3.3 37.9 38 -9.6 14.7
23:40 1011 29.85 840 24.81 3.3 37.9 39 -9.6 14.8
23:45 1011 29.85 840 24.81 3.2 37.8 39 -9.3 15.2
23:50 1011 29.85 840 24.81 3.1 37.7 39 -9.4 15.1
23:55 1011 29.85 840 24.81 3.1 37.6 39 -9.6 14.7
24:00 1011 29.85 841 24.83 3.2 37.7 38 -9.8 14.4